sensor_id;sensor_type;location;lat;lon;timestamp;pressure;altitude;pressure_sealevel;temperature;humidity
55373;BME280;70018;47.838;16.490;2024-01-15T00:00:11;97998.00;;;-3.56;81.05
55373;BME280;70018;47.838;16.490;2024-01-15T00:02:38;97996.19;;;-3.47;80.96
55373;BME280;70018;47.838;16.490;2024-01-15T00:05:04;97986.38;;;-3.43;81.98
55373;BME280;70018;47.838;16.490;2024-01-15T00:07:31;97983.31;;;-3.50;80.81
55373;BME280;70018;47.838;16.490;2024-01-15T00:09:58;97983.53;;;-3.47;80.71
55373;BME280;70018;47.838;16.490;2024-01-15T00:12:24;97985.53;;;-3.52;80.97
55373;BME280;70018;47.838;16.490;2024-01-15T00:14:51;97977.88;;;-3.59;81.68
55373;BME280;70018;47.838;16.490;2024-01-15T00:17:18;97983.81;;;-3.70;81.55
55373;BME280;70018;47.838;16.490;2024-01-15T00:19:45;97972.50;;;-3.59;81.40
55373;BME280;70018;47.838;16.490;2024-01-15T00:22:12;97959.78;;;-3.67;80.01
55373;BME280;70018;47.838;16.490;2024-01-15T00:24:38;97965.53;;;-3.82;80.30
55373;BME280;70018;47.838;16.490;2024-01-15T00:27:05;97961.06;;;-3.86;80.23
55373;BME280;70018;47.838;16.490;2024-01-15T00:29:31;97959.13;;;-3.86;79.70
55373;BME280;70018;47.838;16.490;2024-01-15T00:31:58;97964.63;;;-3.91;80.92
55373;BME280;70018;47.838;16.490;2024-01-15T00:34:25;97944.41;;;-3.88;80.62
55373;BME280;70018;47.838;16.490;2024-01-15T00:36:52;97948.34;;;-3.72;79.96
55373;BME280;70018;47.838;16.490;2024-01-15T00:39:18;97943.69;;;-3.58;81.08
55373;BME280;70018;47.838;16.490;2024-01-15T00:41:45;97933.97;;;-3.46;80.17
55373;BME280;70018;47.838;16.490;2024-01-15T00:44:12;97942.13;;;-3.37;80.95
55373;BME280;70018;47.838;16.490;2024-01-15T00:46:45;97944.06;;;-3.29;80.52
55373;BME280;70018;47.838;16.490;2024-01-15T00:49:13;97944.91;;;-3.20;80.93
55373;BME280;70018;47.838;16.490;2024-01-15T00:51:40;97936.09;;;-3.12;80.68
55373;BME280;70018;47.838;16.490;2024-01-15T00:54:07;97945.31;;;-3.04;80.70
55373;BME280;70018;47.838;16.490;2024-01-15T00:56:34;97942.28;;;-3.03;80.83
55373;BME280;70018;47.838;16.490;2024-01-15T00:59:01;97949.91;;;-3.05;82.15
55373;BME280;70018;47.838;16.490;2024-01-15T01:01:28;97937.09;;;-2.99;81.81
55373;BME280;70018;47.838;16.490;2024-01-15T01:03:55;97927.81;;;-2.85;82.26
55373;BME280;70018;47.838;16.490;2024-01-15T01:06:22;97937.00;;;-2.86;81.98
55373;BME280;70018;47.838;16.490;2024-01-15T01:08:49;97931.47;;;-2.81;82.15
55373;BME280;70018;47.838;16.490;2024-01-15T01:11:15;97933.44;;;-2.55;81.15
55373;BME280;70018;47.838;16.490;2024-01-15T01:13:42;97925.22;;;-2.50;80.72
55373;BME280;70018;47.838;16.490;2024-01-15T01:16:09;97940.72;;;-2.65;81.02
55373;BME280;70018;47.838;16.490;2024-01-15T01:18:36;97924.97;;;-2.80;80.32
55373;BME280;70018;47.838;16.490;2024-01-15T01:21:03;97936.06;;;-2.81;80.84
55373;BME280;70018;47.838;16.490;2024-01-15T01:23:30;97926.06;;;-2.81;79.93
55373;BME280;70018;47.838;16.490;2024-01-15T01:25:57;97907.88;;;-2.75;80.06
55373;BME280;70018;47.838;16.490;2024-01-15T01:28:23;97906.13;;;-2.71;80.57
55373;BME280;70018;47.838;16.490;2024-01-15T01:30:50;97912.19;;;-2.66;81.26
55373;BME280;70018;47.838;16.490;2024-01-15T01:33:17;97906.50;;;-2.55;80.94
55373;BME280;70018;47.838;16.490;2024-01-15T01:35:44;97893.38;;;-2.57;79.90
55373;BME280;70018;47.838;16.490;2024-01-15T01:38:12;97908.44;;;-2.47;80.98
55373;BME280;70018;47.838;16.490;2024-01-15T01:40:39;97895.75;;;-2.38;81.03
55373;BME280;70018;47.838;16.490;2024-01-15T01:43:05;97882.94;;;-2.33;80.41
55373;BME280;70018;47.838;16.490;2024-01-15T01:45:32;97898.47;;;-2.47;80.90
55373;BME280;70018;47.838;16.490;2024-01-15T01:48:00;97896.06;;;-2.48;80.70
55373;BME280;70018;47.838;16.490;2024-01-15T01:50:30;97886.84;;;-2.56;80.51
55373;BME280;70018;47.838;16.490;2024-01-15T01:52:59;97874.97;;;-2.46;80.39
55373;BME280;70018;47.838;16.490;2024-01-15T01:55:27;97873.88;;;-2.45;80.69
55373;BME280;70018;47.838;16.490;2024-01-15T01:57:55;97868.66;;;-2.42;80.23
55373;BME280;70018;47.838;16.490;2024-01-15T02:00:23;97865.97;;;-2.33;81.01
55373;BME280;70018;47.838;16.490;2024-01-15T02:02:50;97855.66;;;-2.14;81.86
55373;BME280;70018;47.838;16.490;2024-01-15T02:05:18;97879.94;;;-1.80;82.03
55373;BME280;70018;47.838;16.490;2024-01-15T02:07:46;97875.16;;;-1.66;81.14
55373;BME280;70018;47.838;16.490;2024-01-15T02:10:14;97870.50;;;-1.48;79.87
55373;BME280;70018;47.838;16.490;2024-01-15T02:12:42;97880.84;;;-1.59;80.15
55373;BME280;70018;47.838;16.490;2024-01-15T02:15:09;97881.81;;;-1.89;79.42
55373;BME280;70018;47.838;16.490;2024-01-15T02:17:59;97879.75;;;-2.09;80.44
55373;BME280;70018;47.838;16.490;2024-01-15T02:20:27;97876.72;;;-2.50;79.28
55373;BME280;70018;47.838;16.490;2024-01-15T02:22:54;97872.25;;;-2.64;79.92
55373;BME280;70018;47.838;16.490;2024-01-15T02:25:21;97876.69;;;-2.68;79.77
55373;BME280;70018;47.838;16.490;2024-01-15T02:27:47;97876.53;;;-2.63;80.44
55373;BME280;70018;47.838;16.490;2024-01-15T02:30:15;97885.91;;;-2.51;81.48
55373;BME280;70018;47.838;16.490;2024-01-15T02:32:42;97874.81;;;-2.41;80.24
55373;BME280;70018;47.838;16.490;2024-01-15T02:35:09;97878.19;;;-2.27;80.16
55373;BME280;70018;47.838;16.490;2024-01-15T02:37:35;97873.59;;;-2.01;79.40
55373;BME280;70018;47.838;16.490;2024-01-15T02:40:02;97872.00;;;-2.11;78.74
55373;BME280;70018;47.838;16.490;2024-01-15T02:42:30;97859.00;;;-2.17;78.94
55373;BME280;70018;47.838;16.490;2024-01-15T02:44:56;97853.25;;;-2.41;78.59
55373;BME280;70018;47.838;16.490;2024-01-15T02:47:23;97862.16;;;-2.41;78.29
55373;BME280;70018;47.838;16.490;2024-01-15T02:49:50;97845.34;;;-2.29;79.63
55373;BME280;70018;47.838;16.490;2024-01-15T02:52:17;97829.19;;;-2.38;78.39
55373;BME280;70018;47.838;16.490;2024-01-15T02:54:44;97818.06;;;-2.45;80.60
55373;BME280;70018;47.838;16.490;2024-01-15T02:57:11;97811.56;;;-2.44;80.70
55373;BME280;70018;47.838;16.490;2024-01-15T02:59:37;97810.94;;;-2.41;79.13
55373;BME280;70018;47.838;16.490;2024-01-15T03:02:04;97790.34;;;-2.37;79.40
55373;BME280;70018;47.838;16.490;2024-01-15T03:04:31;97770.66;;;-2.46;78.91
55373;BME280;70018;47.838;16.490;2024-01-15T03:06:58;97777.16;;;-2.55;79.64
55373;BME280;70018;47.838;16.490;2024-01-15T03:09:24;97806.63;;;-2.59;79.08
55373;BME280;70018;47.838;16.490;2024-01-15T03:11:51;97826.75;;;-2.56;80.25
55373;BME280;70018;47.838;16.490;2024-01-15T03:14:18;97825.66;;;-2.64;81.16
55373;BME280;70018;47.838;16.490;2024-01-15T03:16:44;97813.28;;;-2.56;79.81
55373;BME280;70018;47.838;16.490;2024-01-15T03:19:11;97814.25;;;-2.52;80.62
55373;BME280;70018;47.838;16.490;2024-01-15T03:21:38;97827.59;;;-2.30;79.75
55373;BME280;70018;47.838;16.490;2024-01-15T03:24:05;97816.00;;;-2.05;79.68
55373;BME280;70018;47.838;16.490;2024-01-15T03:26:31;97816.16;;;-1.93;76.58
55373;BME280;70018;47.838;16.490;2024-01-15T03:28:58;97819.00;;;-1.81;75.84
55373;BME280;70018;47.838;16.490;2024-01-15T03:31:24;97825.31;;;-1.77;75.04
55373;BME280;70018;47.838;16.490;2024-01-15T03:33:51;97819.75;;;-1.72;74.06
55373;BME280;70018;47.838;16.490;2024-01-15T03:36:18;97811.31;;;-1.62;73.55
55373;BME280;70018;47.838;16.490;2024-01-15T03:38:45;97813.38;;;-1.50;73.43
55373;BME280;70018;47.838;16.490;2024-01-15T03:41:11;97820.66;;;-1.51;72.65
55373;BME280;70018;47.838;16.490;2024-01-15T03:43:38;97819.41;;;-1.53;71.88
55373;BME280;70018;47.838;16.490;2024-01-15T03:46:06;97822.44;;;-1.55;71.33
55373;BME280;70018;47.838;16.490;2024-01-15T03:48:33;97819.75;;;-1.63;72.28
55373;BME280;70018;47.838;16.490;2024-01-15T03:51:00;97828.94;;;-1.64;71.43
55373;BME280;70018;47.838;16.490;2024-01-15T03:53:27;97827.03;;;-1.64;72.62
55373;BME280;70018;47.838;16.490;2024-01-15T03:55:53;97833.56;;;-1.82;71.65
55373;BME280;70018;47.838;16.490;2024-01-15T03:58:20;97836.00;;;-1.98;72.47
55373;BME280;70018;47.838;16.490;2024-01-15T04:00:47;97822.69;;;-2.03;72.59
55373;BME280;70018;47.838;16.490;2024-01-15T04:03:14;97821.06;;;-2.04;74.10
55373;BME280;70018;47.838;16.490;2024-01-15T04:05:40;97814.72;;;-1.99;74.23
55373;BME280;70018;47.838;16.490;2024-01-15T04:08:07;97813.16;;;-2.17;72.89
55373;BME280;70018;47.838;16.490;2024-01-15T04:10:34;97812.03;;;-2.16;73.84
55373;BME280;70018;47.838;16.490;2024-01-15T04:13:00;97813.63;;;-2.07;73.72
55373;BME280;70018;47.838;16.490;2024-01-15T04:15:28;97814.59;;;-2.03;74.81
55373;BME280;70018;47.838;16.490;2024-01-15T04:17:54;97805.09;;;-2.17;74.41
55373;BME280;70018;47.838;16.490;2024-01-15T04:20:21;97800.63;;;-2.47;73.66
55373;BME280;70018;47.838;16.490;2024-01-15T04:22:51;97797.59;;;-2.63;75.40
55373;BME280;70018;47.838;16.490;2024-01-15T04:25:18;97790.94;;;-2.83;76.51
55373;BME280;70018;47.838;16.490;2024-01-15T04:27:45;97798.69;;;-2.90;76.58
55373;BME280;70018;47.838;16.490;2024-01-15T04:30:12;97795.66;;;-2.97;77.04
55373;BME280;70018;47.838;16.490;2024-01-15T04:32:39;97788.72;;;-2.89;78.51
55373;BME280;70018;47.838;16.490;2024-01-15T04:35:06;97781.75;;;-2.73;78.36
55373;BME280;70018;47.838;16.490;2024-01-15T04:37:32;97773.81;;;-2.61;77.48
55373;BME280;70018;47.838;16.490;2024-01-15T04:39:59;97786.50;;;-2.62;76.81
55373;BME280;70018;47.838;16.490;2024-01-15T04:42:26;97784.75;;;-2.49;76.72
55373;BME280;70018;47.838;16.490;2024-01-15T04:44:52;97784.16;;;-2.37;77.07
55373;BME280;70018;47.838;16.490;2024-01-15T04:47:19;97789.22;;;-2.27;76.60
55373;BME280;70018;47.838;16.490;2024-01-15T04:49:46;97783.84;;;-2.27;76.96
55373;BME280;70018;47.838;16.490;2024-01-15T04:52:12;97780.31;;;-2.19;76.29
55373;BME280;70018;47.838;16.490;2024-01-15T04:54:39;97786.50;;;-2.10;75.70
55373;BME280;70018;47.838;16.490;2024-01-15T04:57:06;97789.97;;;-2.01;75.72
55373;BME280;70018;47.838;16.490;2024-01-15T04:59:33;97785.06;;;-1.90;76.22
55373;BME280;70018;47.838;16.490;2024-01-15T05:01:59;97799.50;;;-1.95;75.03
55373;BME280;70018;47.838;16.490;2024-01-15T05:04:26;97798.66;;;-1.70;75.79
55373;BME280;70018;47.838;16.490;2024-01-15T05:06:53;97798.66;;;-0.94;75.18
55373;BME280;70018;47.838;16.490;2024-01-15T05:09:20;97805.78;;;-0.19;73.36
55373;BME280;70018;47.838;16.490;2024-01-15T05:11:47;97809.38;;;0.38;69.85
55373;BME280;70018;47.838;16.490;2024-01-15T05:14:13;97815.44;;;0.68;69.73
55373;BME280;70018;47.838;16.490;2024-01-15T05:16:47;97816.91;;;0.78;69.25
55373;BME280;70018;47.838;16.490;2024-01-15T05:19:14;97823.47;;;1.25;65.38
55373;BME280;70018;47.838;16.490;2024-01-15T05:21:41;97815.00;;;1.39;64.96
55373;BME280;70018;47.838;16.490;2024-01-15T05:24:08;97820.72;;;1.73;65.28
55373;BME280;70018;47.838;16.490;2024-01-15T05:26:34;97844.50;;;1.92;64.76
55373;BME280;70018;47.838;16.490;2024-01-15T05:29:01;97828.13;;;2.28;63.01
55373;BME280;70018;47.838;16.490;2024-01-15T05:31:28;97838.47;;;2.38;63.88
55373;BME280;70018;47.838;16.490;2024-01-15T05:33:54;97838.28;;;2.59;60.48
55373;BME280;70018;47.838;16.490;2024-01-15T05:36:21;97851.88;;;2.75;59.13
55373;BME280;70018;47.838;16.490;2024-01-15T05:38:48;97857.69;;;2.89;57.94
55373;BME280;70018;47.838;16.490;2024-01-15T05:41:16;97824.63;;;3.02;56.61
55373;BME280;70018;47.838;16.490;2024-01-15T05:43:42;97861.19;;;3.05;55.78
55373;BME280;70018;47.838;16.490;2024-01-15T05:46:09;97853.22;;;3.12;54.58
55373;BME280;70018;47.838;16.490;2024-01-15T05:48:36;97853.47;;;3.07;55.22
55373;BME280;70018;47.838;16.490;2024-01-15T05:51:03;97848.47;;;2.93;54.83
55373;BME280;70018;47.838;16.490;2024-01-15T05:53:29;97848.13;;;2.95;54.49
55373;BME280;70018;47.838;16.490;2024-01-15T05:55:56;97846.72;;;2.85;56.48
55373;BME280;70018;47.838;16.490;2024-01-15T05:58:23;97856.06;;;2.72;56.29
55373;BME280;70018;47.838;16.490;2024-01-15T06:00:49;97867.13;;;2.64;56.74
55373;BME280;70018;47.838;16.490;2024-01-15T06:03:16;97849.56;;;2.61;55.42
55373;BME280;70018;47.838;16.490;2024-01-15T06:05:43;97860.09;;;2.63;55.91
55373;BME280;70018;47.838;16.490;2024-01-15T06:08:10;97864.53;;;2.55;55.03
55373;BME280;70018;47.838;16.490;2024-01-15T06:10:37;97873.94;;;2.57;56.50
55373;BME280;70018;47.838;16.490;2024-01-15T06:13:03;97885.41;;;2.51;56.07
55373;BME280;70018;47.838;16.490;2024-01-15T06:15:30;97896.84;;;2.44;56.26
55373;BME280;70018;47.838;16.490;2024-01-15T06:17:57;97913.53;;;2.31;56.51
55373;BME280;70018;47.838;16.490;2024-01-15T06:20:23;97906.22;;;2.19;57.22
55373;BME280;70018;47.838;16.490;2024-01-15T06:22:50;97915.38;;;2.15;57.63
55373;BME280;70018;47.838;16.490;2024-01-15T06:25:17;97912.38;;;2.04;57.28
55373;BME280;70018;47.838;16.490;2024-01-15T06:27:43;97922.09;;;1.93;57.13
55373;BME280;70018;47.838;16.490;2024-01-15T06:30:10;97928.78;;;1.83;58.08
55373;BME280;70018;47.838;16.490;2024-01-15T06:32:38;97936.06;;;1.79;57.68
55373;BME280;70018;47.838;16.490;2024-01-15T06:35:05;97939.66;;;1.71;58.12
55373;BME280;70018;47.838;16.490;2024-01-15T06:37:32;97935.00;;;1.60;58.92
55373;BME280;70018;47.838;16.490;2024-01-15T06:39:59;97940.44;;;1.48;59.09
55373;BME280;70018;47.838;16.490;2024-01-15T06:42:26;97925.63;;;1.33;60.21
55373;BME280;70018;47.838;16.490;2024-01-15T06:44:52;97915.66;;;1.25;60.46
55373;BME280;70018;47.838;16.490;2024-01-15T06:47:19;97927.22;;;1.22;60.00
55373;BME280;70018;47.838;16.490;2024-01-15T06:49:46;97931.59;;;1.14;59.67
55373;BME280;70018;47.838;16.490;2024-01-15T06:52:12;97942.66;;;1.09;60.53
55373;BME280;70018;47.838;16.490;2024-01-15T06:54:39;97932.59;;;1.10;60.33
55373;BME280;70018;47.838;16.490;2024-01-15T06:57:06;97939.09;;;1.29;59.67
55373;BME280;70018;47.838;16.490;2024-01-15T06:59:34;97926.63;;;1.28;59.73
55373;BME280;70018;47.838;16.490;2024-01-15T07:02:02;97927.97;;;1.22;60.47
55373;BME280;70018;47.838;16.490;2024-01-15T07:04:29;97928.56;;;1.28;60.33
55373;BME280;70018;47.838;16.490;2024-01-15T07:06:56;97941.44;;;1.31;60.01
55373;BME280;70018;47.838;16.490;2024-01-15T07:09:22;97930.03;;;1.38;59.93
55373;BME280;70018;47.838;16.490;2024-01-15T07:11:49;97936.81;;;1.56;59.43
55373;BME280;70018;47.838;16.490;2024-01-15T07:14:16;97944.28;;;1.83;59.21
55373;BME280;70018;47.838;16.490;2024-01-15T07:16:43;97955.09;;;2.07;58.95
55373;BME280;70018;47.838;16.490;2024-01-15T07:19:14;97946.50;;;2.29;56.89
55373;BME280;70018;47.838;16.490;2024-01-15T07:21:40;97942.78;;;2.49;56.79
55373;BME280;70018;47.838;16.490;2024-01-15T07:24:09;97959.06;;;2.62;55.67
55373;BME280;70018;47.838;16.490;2024-01-15T07:26:37;97945.69;;;2.69;55.99
55373;BME280;70018;47.838;16.490;2024-01-15T07:29:04;97949.72;;;2.75;56.71
55373;BME280;70018;47.838;16.490;2024-01-15T07:31:30;97955.25;;;2.78;57.52
55373;BME280;70018;47.838;16.490;2024-01-15T07:33:57;97963.25;;;2.87;56.01
55373;BME280;70018;47.838;16.490;2024-01-15T07:36:24;97954.94;;;2.95;56.09
55373;BME280;70018;47.838;16.490;2024-01-15T07:38:51;97954.25;;;2.98;55.65
55373;BME280;70018;47.838;16.490;2024-01-15T07:41:17;97952.78;;;3.01;55.44
55373;BME280;70018;47.838;16.490;2024-01-15T07:43:44;97955.94;;;3.03;56.54
55373;BME280;70018;47.838;16.490;2024-01-15T07:46:10;97966.38;;;3.01;53.49
55373;BME280;70018;47.838;16.490;2024-01-15T07:48:37;97956.88;;;2.95;53.59
55373;BME280;70018;47.838;16.490;2024-01-15T07:51:04;97970.28;;;2.88;55.30
55373;BME280;70018;47.838;16.490;2024-01-15T07:53:31;97967.00;;;2.82;55.21
55373;BME280;70018;47.838;16.490;2024-01-15T07:55:57;97971.03;;;2.73;55.26
55373;BME280;70018;47.838;16.490;2024-01-15T07:58:25;97980.56;;;2.67;54.38
55373;BME280;70018;47.838;16.490;2024-01-15T08:00:51;97988.84;;;2.58;55.13
55373;BME280;70018;47.838;16.490;2024-01-15T08:03:19;97998.72;;;2.50;55.92
55373;BME280;70018;47.838;16.490;2024-01-15T08:05:45;98001.44;;;2.50;55.14
55373;BME280;70018;47.838;16.490;2024-01-15T08:08:13;97994.88;;;2.51;55.60
55373;BME280;70018;47.838;16.490;2024-01-15T08:10:40;97989.97;;;2.57;56.13
55373;BME280;70018;47.838;16.490;2024-01-15T08:13:06;97988.06;;;2.57;55.42
55373;BME280;70018;47.838;16.490;2024-01-15T08:15:35;97987.38;;;2.60;55.61
55373;BME280;70018;47.838;16.490;2024-01-15T08:18:02;97977.75;;;2.63;55.33
55373;BME280;70018;47.838;16.490;2024-01-15T08:20:29;97978.09;;;2.62;55.95
55373;BME280;70018;47.838;16.490;2024-01-15T08:22:56;97979.22;;;2.60;55.25
55373;BME280;70018;47.838;16.490;2024-01-15T08:25:22;97979.66;;;2.63;54.41
55373;BME280;70018;47.838;16.490;2024-01-15T08:27:49;97977.50;;;2.68;55.46
55373;BME280;70018;47.838;16.490;2024-01-15T08:30:16;97976.00;;;2.71;53.83
55373;BME280;70018;47.838;16.490;2024-01-15T08:32:43;97978.59;;;2.79;54.26
55373;BME280;70018;47.838;16.490;2024-01-15T08:35:10;97971.06;;;2.88;52.72
55373;BME280;70018;47.838;16.490;2024-01-15T08:37:38;97968.66;;;2.99;54.21
55373;BME280;70018;47.838;16.490;2024-01-15T08:40:05;97961.56;;;3.10;54.28
55373;BME280;70018;47.838;16.490;2024-01-15T08:42:32;97960.00;;;3.24;54.55
55373;BME280;70018;47.838;16.490;2024-01-15T08:44:59;97953.59;;;3.33;53.38
55373;BME280;70018;47.838;16.490;2024-01-15T08:47:25;97954.31;;;3.45;52.88
55373;BME280;70018;47.838;16.490;2024-01-15T08:49:53;97949.69;;;3.61;52.16
55373;BME280;70018;47.838;16.490;2024-01-15T08:52:20;97934.22;;;3.65;51.92
55373;BME280;70018;47.838;16.490;2024-01-15T08:54:47;97945.91;;;3.66;51.58
55373;BME280;70018;47.838;16.490;2024-01-15T08:57:14;97939.75;;;3.69;51.48
55373;BME280;70018;47.838;16.490;2024-01-15T08:59:41;97958.13;;;3.56;49.63
55373;BME280;70018;47.838;16.490;2024-01-15T09:02:08;97944.31;;;3.49;51.65
55373;BME280;70018;47.838;16.490;2024-01-15T09:04:35;97955.47;;;3.60;51.58
55373;BME280;70018;47.838;16.490;2024-01-15T09:07:02;97956.31;;;3.79;51.63
55373;BME280;70018;47.838;16.490;2024-01-15T09:09:28;97963.00;;;3.98;49.92
55373;BME280;70018;47.838;16.490;2024-01-15T09:11:55;97962.75;;;4.22;48.16
55373;BME280;70018;47.838;16.490;2024-01-15T09:14:22;97966.03;;;4.46;47.38
55373;BME280;70018;47.838;16.490;2024-01-15T09:17:04;97963.91;;;4.75;48.57
55373;BME280;70018;47.838;16.490;2024-01-15T09:19:31;97965.47;;;4.95;46.35
55373;BME280;70018;47.838;16.490;2024-01-15T09:21:58;97955.41;;;4.99;47.08
55373;BME280;70018;47.838;16.490;2024-01-15T09:24:25;97956.91;;;5.15;45.69
55373;BME280;70018;47.838;16.490;2024-01-15T09:26:54;97963.09;;;5.12;45.13
55373;BME280;70018;47.838;16.490;2024-01-15T09:29:21;97962.25;;;5.08;45.74
55373;BME280;70018;47.838;16.490;2024-01-15T09:31:50;97964.22;;;5.31;45.90
55373;BME280;70018;47.838;16.490;2024-01-15T09:34:17;97948.91;;;5.71;46.38
55373;BME280;70018;47.838;16.490;2024-01-15T09:36:44;97944.63;;;5.70;44.18
55373;BME280;70018;47.838;16.490;2024-01-15T09:39:11;97947.97;;;5.83;45.33
55373;BME280;70018;47.838;16.490;2024-01-15T09:41:39;97947.38;;;5.93;45.12
55373;BME280;70018;47.838;16.490;2024-01-15T09:44:06;97939.31;;;6.04;44.25
55373;BME280;70018;47.838;16.490;2024-01-15T09:46:35;97935.25;;;5.94;44.38
55373;BME280;70018;47.838;16.490;2024-01-15T09:49:01;97919.09;;;6.08;44.78
55373;BME280;70018;47.838;16.490;2024-01-15T09:51:31;97935.25;;;5.94;44.53
55373;BME280;70018;47.838;16.490;2024-01-15T09:53:58;97912.16;;;5.88;43.35
55373;BME280;70018;47.838;16.490;2024-01-15T09:56:25;97911.47;;;5.95;44.84
55373;BME280;70018;47.838;16.490;2024-01-15T09:58:52;97924.91;;;6.07;44.99
55373;BME280;70018;47.838;16.490;2024-01-15T10:01:22;97899.63;;;6.13;45.24
55373;BME280;70018;47.838;16.490;2024-01-15T10:03:50;97899.00;;;6.23;45.04
55373;BME280;70018;47.838;16.490;2024-01-15T10:06:17;97893.44;;;6.16;43.95
55373;BME280;70018;47.838;16.490;2024-01-15T10:08:50;97895.19;;;5.79;43.23
55373;BME280;70018;47.838;16.490;2024-01-15T10:11:17;97881.47;;;5.49;44.37
55373;BME280;70018;47.838;16.490;2024-01-15T10:13:44;97873.34;;;5.53;44.77
55373;BME280;70018;47.838;16.490;2024-01-15T10:16:12;97871.75;;;5.52;45.27
55373;BME280;70018;47.838;16.490;2024-01-15T10:18:39;97877.97;;;5.75;43.78
55373;BME280;70018;47.838;16.490;2024-01-15T10:21:07;97872.53;;;6.01;44.61
55373;BME280;70018;47.838;16.490;2024-01-15T10:23:34;97891.56;;;6.20;43.52
55373;BME280;70018;47.838;16.490;2024-01-15T10:26:03;97897.03;;;5.94;42.66
55373;BME280;70018;47.838;16.490;2024-01-15T10:28:30;97889.97;;;6.19;44.30
55373;BME280;70018;47.838;16.490;2024-01-15T10:30:59;97885.75;;;5.96;43.33
55373;BME280;70018;47.838;16.490;2024-01-15T10:33:26;97893.41;;;5.64;44.25
55373;BME280;70018;47.838;16.490;2024-01-15T10:35:58;97889.94;;;5.67;44.20
55373;BME280;70018;47.838;16.490;2024-01-15T10:38:26;97873.03;;;5.84;43.32
55373;BME280;70018;47.838;16.490;2024-01-15T10:40:54;97905.59;;;5.93;44.34
55373;BME280;70018;47.838;16.490;2024-01-15T10:43:22;97885.56;;;6.11;42.90
55373;BME280;70018;47.838;16.490;2024-01-15T10:45:54;97856.50;;;6.00;42.39
55373;BME280;70018;47.838;16.490;2024-01-15T10:48:21;97907.59;;;5.96;43.75
55373;BME280;70018;47.838;16.490;2024-01-15T10:50:48;97872.50;;;5.98;43.33
55373;BME280;70018;47.838;16.490;2024-01-15T10:53:16;97875.00;;;6.10;44.00
55373;BME280;70018;47.838;16.490;2024-01-15T10:55:46;97858.19;;;6.08;44.36
55373;BME280;70018;47.838;16.490;2024-01-15T10:58:15;97863.34;;;6.13;44.56
55373;BME280;70018;47.838;16.490;2024-01-15T11:00:43;97855.47;;;6.11;44.36
55373;BME280;70018;47.838;16.490;2024-01-15T11:03:10;97855.94;;;5.87;43.88
55373;BME280;70018;47.838;16.490;2024-01-15T11:05:43;97835.63;;;5.84;43.64
55373;BME280;70018;47.838;16.490;2024-01-15T11:08:10;97844.34;;;5.71;44.46
55373;BME280;70018;47.838;16.490;2024-01-15T11:10:38;97839.19;;;5.66;44.03
55373;BME280;70018;47.838;16.490;2024-01-15T11:16:06;97825.75;;;5.54;44.70
55373;BME280;70018;47.838;16.490;2024-01-15T11:18:39;97835.00;;;5.46;45.64
55373;BME280;70018;47.838;16.490;2024-01-15T11:23:44;97810.63;;;5.34;46.34
55373;BME280;70018;47.838;16.490;2024-01-15T11:26:45;97811.19;;;5.20;46.93
55373;BME280;70018;47.838;16.490;2024-01-15T11:32:04;97808.06;;;5.18;47.32
55373;BME280;70018;47.838;16.490;2024-01-15T11:34:51;97809.84;;;5.33;47.42
55373;BME280;70018;47.838;16.490;2024-01-15T11:37:20;97783.66;;;5.55;47.38
55373;BME280;70018;47.838;16.490;2024-01-15T11:39:47;97817.97;;;5.30;47.81
55373;BME280;70018;47.838;16.490;2024-01-15T11:42:14;97803.53;;;5.29;48.44
55373;BME280;70018;47.838;16.490;2024-01-15T11:44:41;97795.03;;;5.34;47.91
55373;BME280;70018;47.838;16.490;2024-01-15T11:47:10;97810.38;;;5.16;48.19
55373;BME280;70018;47.838;16.490;2024-01-15T11:50:01;97797.50;;;4.94;48.52
55373;BME280;70018;47.838;16.490;2024-01-15T11:52:38;97784.25;;;4.92;49.58
55373;BME280;70018;47.838;16.490;2024-01-15T11:55:16;97793.53;;;4.88;48.77
55373;BME280;70018;47.838;16.490;2024-01-15T11:57:47;97779.75;;;5.03;49.47
55373;BME280;70018;47.838;16.490;2024-01-15T12:00:16;97783.00;;;5.12;49.50
55373;BME280;70018;47.838;16.490;2024-01-15T12:02:45;97784.03;;;5.04;49.29
55373;BME280;70018;47.838;16.490;2024-01-15T12:05:13;97769.06;;;5.17;49.24
55373;BME280;70018;47.838;16.490;2024-01-15T12:07:44;97755.94;;;5.27;49.38
55373;BME280;70018;47.838;16.490;2024-01-15T12:10:15;97737.47;;;4.90;49.71
55373;BME280;70018;47.838;16.490;2024-01-15T12:13:00;97750.97;;;4.83;49.93
55373;BME280;70018;47.838;16.490;2024-01-15T12:15:31;97743.81;;;4.98;49.98
55373;BME280;70018;47.838;16.490;2024-01-15T12:18:00;97729.69;;;4.92;50.02
55373;BME280;70018;47.838;16.490;2024-01-15T12:20:30;97727.88;;;4.77;50.66
55373;BME280;70018;47.838;16.490;2024-01-15T12:22:57;97727.19;;;4.84;50.28
55373;BME280;70018;47.838;16.490;2024-01-15T12:25:30;97731.03;;;4.79;50.91
55373;BME280;70018;47.838;16.490;2024-01-15T12:27:58;97752.31;;;4.93;50.21
55373;BME280;70018;47.838;16.490;2024-01-15T12:30:29;97751.13;;;4.94;50.80
55373;BME280;70018;47.838;16.490;2024-01-15T12:33:04;97738.91;;;4.84;50.37
55373;BME280;70018;47.838;16.490;2024-01-15T12:35:31;97763.09;;;4.86;50.64
55373;BME280;70018;47.838;16.490;2024-01-15T12:38:00;97762.53;;;4.99;50.77
55373;BME280;70018;47.838;16.490;2024-01-15T12:40:30;97760.72;;;4.84;51.17
55373;BME280;70018;47.838;16.490;2024-01-15T12:42:57;97749.69;;;4.77;50.77
55373;BME280;70018;47.838;16.490;2024-01-15T12:45:23;97747.56;;;4.67;51.51
55373;BME280;70018;47.838;16.490;2024-01-15T12:47:50;97733.03;;;4.60;51.12
55373;BME280;70018;47.838;16.490;2024-01-15T12:50:18;97721.03;;;4.41;51.75
55373;BME280;70018;47.838;16.490;2024-01-15T12:52:46;97718.69;;;4.40;51.30
55373;BME280;70018;47.838;16.490;2024-01-15T12:55:14;97720.56;;;4.36;51.22
55373;BME280;70018;47.838;16.490;2024-01-15T12:57:42;97715.69;;;4.26;51.79
55373;BME280;70018;47.838;16.490;2024-01-15T13:00:09;97695.16;;;4.32;52.01
55373;BME280;70018;47.838;16.490;2024-01-15T13:02:40;97725.41;;;4.46;51.96
55373;BME280;70018;47.838;16.490;2024-01-15T13:05:09;97709.47;;;4.48;50.71